createdAt,value
2022-12-08T00:01:28.121Z,99811.22
2022-12-08T00:03:59.205Z,99820.06
2022-12-08T00:06:53.451Z,99801.63
2022-12-08T00:09:39.437Z,99819.38
2022-12-08T00:12:15.392Z,99819.19
2022-12-08T00:14:45.064Z,99813.00
2022-12-08T00:17:14.364Z,99793.28
2022-12-08T00:19:42.936Z,99815.72
2022-12-08T00:22:11.742Z,99809.91
2022-12-08T00:24:40.415Z,99794.97
2022-12-08T00:27:09.365Z,99794.19
2022-12-08T00:29:37.062Z,99803.81
2022-12-08T00:32:05.120Z,99781.59
2022-12-08T00:34:33.523Z,99795.84
2022-12-08T00:37:00.816Z,99772.81
2022-12-08T00:39:28.234Z,99790.44
2022-12-08T00:42:13.805Z,99779.50
2022-12-08T00:44:46.109Z,99797.25
2022-12-08T00:47:14.449Z,99759.13
2022-12-08T00:49:41.701Z,99773.47
2022-12-08T00:52:08.921Z,99786.59
2022-12-08T00:54:35.929Z,99777.97
2022-12-08T00:57:02.923Z,99791.53
2022-12-08T00:59:30.030Z,99776.25
2022-12-08T01:01:57.456Z,99775.69
2022-12-08T01:04:24.709Z,99795.88
2022-12-08T01:06:52.840Z,99802.16
2022-12-08T01:09:19.974Z,99793.94
2022-12-08T01:11:47.574Z,99799.84
2022-12-08T01:14:15.501Z,99781.41
2022-12-08T01:16:43.008Z,99772.72
2022-12-08T01:19:12.251Z,99764.94
2022-12-08T01:21:40.542Z,99788.28
2022-12-08T01:24:10.781Z,99770.22
2022-12-08T01:26:37.906Z,99791.78
2022-12-08T01:29:05.339Z,99770.31
2022-12-08T01:31:32.369Z,99771.31
2022-12-08T01:33:59.320Z,99783.72
2022-12-08T01:36:28.796Z,99783.00
2022-12-08T01:38:58.454Z,99750.66
2022-12-08T01:41:28.290Z,99775.41
2022-12-08T01:44:02.081Z,99740.25
2022-12-08T01:46:32.312Z,99769.28
2022-12-08T01:49:04.778Z,99766.47
2022-12-08T01:51:36.217Z,99767.09
2022-12-08T01:54:06.004Z,99758.75
2022-12-08T01:56:43.605Z,99765.91
2022-12-08T01:59:12.959Z,99735.06
2022-12-08T02:01:40.271Z,99775.91
2022-12-08T02:04:07.299Z,99776.31
2022-12-08T02:06:40.066Z,99748.75
2022-12-08T02:09:08.429Z,99743.69
2022-12-08T02:11:35.558Z,99765.91
2022-12-08T02:14:08.445Z,99756.59
2022-12-08T02:17:05.242Z,99770.81
2022-12-08T02:19:35.173Z,99757.94
2022-12-08T02:22:16.863Z,99768.47
2022-12-08T02:24:53.112Z,99752.59
2022-12-08T02:27:58.168Z,99759.75
2022-12-08T02:30:56.248Z,99765.72
2022-12-08T02:33:57.429Z,99752.56
2022-12-08T02:36:40.927Z,99732.41
2022-12-08T02:39:42.081Z,99753.28
2022-12-08T02:42:21.416Z,99753.13
2022-12-08T02:44:51.970Z,99744.47
2022-12-08T02:47:23.485Z,99733.19
2022-12-08T02:49:50.696Z,99748.44
2022-12-08T02:52:18.153Z,99743.66
2022-12-08T02:54:55.930Z,99731.94
2022-12-08T02:57:31.329Z,99734.06
2022-12-08T03:00:14.446Z,99733.84
2022-12-08T03:03:02.959Z,99735.38
2022-12-08T03:05:51.400Z,99733.31
2022-12-08T03:08:51.924Z,99684.88
2022-12-08T03:11:30.242Z,99731.94
2022-12-08T03:14:01.202Z,99733.78
2022-12-08T03:16:31.005Z,99726.78
2022-12-08T03:19:09.356Z,99720.31
2022-12-08T03:21:39.054Z,99736.38
2022-12-08T03:24:08.305Z,99714.81
2022-12-08T03:26:39.160Z,99690.72
2022-12-08T03:29:09.131Z,99698.97
2022-12-08T03:31:42.073Z,99719.66
2022-12-08T03:34:12.315Z,99705.59
2022-12-08T03:36:41.007Z,99726.22
2022-12-08T03:39:10.324Z,99691.66
2022-12-08T03:41:38.147Z,99697.59
2022-12-08T03:44:05.484Z,99696.59
2022-12-08T03:46:33.855Z,99693.94
2022-12-08T03:49:01.685Z,99713.47
2022-12-08T03:54:10.257Z,99693.25
2022-12-08T03:56:41.281Z,99696.63
2022-12-08T03:59:09.841Z,99686.69
2022-12-08T04:01:37.060Z,99709.03
2022-12-08T04:04:04.370Z,99697.91
2022-12-08T04:06:31.714Z,99682.88
2022-12-08T04:11:40.939Z,99691.03
2022-12-08T04:14:08.260Z,99696.00
2022-12-08T04:16:35.559Z,99676.59
2022-12-08T04:19:04.162Z,99691.81
2022-12-08T04:21:47.121Z,99700.47
2022-12-08T04:24:14.613Z,99674.88
2022-12-08T04:26:41.959Z,99668.91
2022-12-08T04:29:10.917Z,99670.59
2022-12-08T04:31:42.953Z,99665.38
2022-12-08T04:34:17.711Z,99704.41
2022-12-08T04:36:47.620Z,99695.63
2022-12-08T04:39:15.075Z,99700.44
2022-12-08T04:41:43.523Z,99689.19
2022-12-08T04:46:54.555Z,99686.25
2022-12-08T04:49:22.103Z,99707.06
2022-12-08T04:54:31.402Z,99688.97
2022-12-08T04:59:42.311Z,99703.72
2022-12-08T05:02:09.797Z,99667.22
2022-12-08T05:04:38.198Z,99669.19
2022-12-08T05:07:06.022Z,99649.91
2022-12-08T05:12:16.025Z,99675.84
2022-12-08T05:17:31.119Z,99667.38
2022-12-08T05:22:48.751Z,99633.94
2022-12-08T05:25:16.105Z,99665.69
2022-12-08T05:27:43.572Z,99676.63
2022-12-08T05:30:10.895Z,99637.97
2022-12-08T05:35:19.640Z,99655.31
2022-12-08T05:37:59.111Z,99672.41
2022-12-08T05:40:26.317Z,99667.13
2022-12-08T05:45:45.192Z,99664.28
2022-12-08T05:48:13.567Z,99622.28
2022-12-08T05:50:45.631Z,99666.84
2022-12-08T05:53:12.887Z,99646.75
2022-12-08T05:58:24.091Z,99661.56
2022-12-08T06:00:51.675Z,99665.16
2022-12-08T06:03:19.055Z,99654.47
2022-12-08T06:05:47.161Z,99671.97
2022-12-08T06:08:15.152Z,99678.53
2022-12-08T06:10:43.961Z,99656.91
2022-12-08T06:13:11.326Z,99677.28
2022-12-08T06:15:39.216Z,99674.88
2022-12-08T06:18:06.948Z,99658.59
2022-12-08T06:20:34.696Z,99657.69
2022-12-08T06:23:02.244Z,99657.50
2022-12-08T06:25:29.301Z,99651.88
2022-12-08T06:28:06.238Z,99669.00
2022-12-08T06:30:33.603Z,99632.13
2022-12-08T06:33:00.611Z,99683.94
2022-12-08T06:35:27.696Z,99638.38
2022-12-08T06:37:55.801Z,99670.88
2022-12-08T06:40:23.225Z,99647.66
2022-12-08T06:42:50.315Z,99661.56
2022-12-08T06:45:18.850Z,99665.16
2022-12-08T06:47:45.954Z,99646.53
2022-12-08T06:50:14.027Z,99664.75
2022-12-08T06:52:53.250Z,99631.44
2022-12-08T06:55:57.260Z,99667.56
2022-12-08T06:58:14.053Z,99643.53
2022-12-08T07:00:42.327Z,99664.22
2022-12-08T07:03:11.739Z,99659.63
2022-12-08T07:05:39.574Z,99661.56
2022-12-08T07:08:08.844Z,99654.06
2022-12-08T07:10:37.301Z,99635.81
2022-12-08T07:13:04.571Z,99642.75
2022-12-08T07:15:31.705Z,99629.03
2022-12-08T07:18:00.421Z,99651.41
2022-12-08T07:20:28.344Z,99631.47
2022-12-08T07:22:56.065Z,99646.09
2022-12-08T07:25:24.057Z,99637.63
2022-12-08T07:27:51.862Z,99651.28
2022-12-08T07:30:19.554Z,99655.44
2022-12-08T07:32:47.981Z,99647.97
2022-12-08T07:35:15.230Z,99679.16
2022-12-08T07:37:42.260Z,99668.53
2022-12-08T07:40:10.236Z,99651.47
2022-12-08T07:42:37.661Z,99641.09
2022-12-08T07:45:05.439Z,99669.25
2022-12-08T07:47:32.604Z,99676.72
2022-12-08T07:49:59.499Z,99654.91
2022-12-08T07:52:26.553Z,99628.19
2022-12-08T07:54:53.763Z,99647.59
2022-12-08T07:57:22.017Z,99646.53
2022-12-08T07:59:49.077Z,99652.78
2022-12-08T08:02:25.918Z,99645.53
2022-12-08T08:07:36.814Z,99625.88
2022-12-08T08:10:05.582Z,99627.56
2022-12-08T08:12:33.473Z,99622.13
2022-12-08T08:15:10.499Z,99620.19
2022-12-08T08:17:38.409Z,99605.84
2022-12-08T08:20:09.224Z,99621.13
2022-12-08T08:22:36.952Z,99595.81
2022-12-08T08:25:04.798Z,99630.06
2022-12-08T08:27:31.945Z,99598.88
2022-12-08T08:29:59.835Z,99630.03
2022-12-08T08:32:26.868Z,99592.41
2022-12-08T08:34:53.909Z,99589.63
2022-12-08T08:37:21.325Z,99612.28
2022-12-08T08:39:49.094Z,99615.13
2022-12-08T08:42:16.906Z,99597.16
2022-12-08T08:44:43.999Z,99616.47
2022-12-08T08:47:11.206Z,99614.09
2022-12-08T08:49:38.921Z,99603.28
2022-12-08T08:52:06.651Z,99626.84
2022-12-08T08:54:35.071Z,99626.25
2022-12-08T08:57:03.793Z,99632.13
2022-12-08T08:59:39.792Z,99602.81
2022-12-08T09:02:07.511Z,99612.34
2022-12-08T09:04:35.201Z,99606.47
2022-12-08T09:07:02.293Z,99593.41
2022-12-08T09:09:36.730Z,99593.72
2022-12-08T09:12:06.707Z,99621.97
2022-12-08T09:14:34.828Z,99587.97
2022-12-08T09:17:02.352Z,99605.81
2022-12-08T09:19:30.005Z,99611.75
2022-12-08T09:21:59.229Z,99577.16
2022-12-08T09:24:29.415Z,99585.38
2022-12-08T09:26:56.743Z,99594.50
2022-12-08T09:29:26.863Z,99596.34
2022-12-08T09:31:57.385Z,99597.47
2022-12-08T09:34:34.457Z,99593.84
2022-12-08T09:37:02.572Z,99594.81
2022-12-08T09:42:14.588Z,99603.25
2022-12-08T09:45:13.784Z,99602.56
2022-12-08T09:47:45.930Z,99593.66
2022-12-08T09:50:19.373Z,99576.56
2022-12-08T09:52:59.939Z,99590.50
2022-12-08T09:55:52.918Z,99592.03
2022-12-08T09:58:45.637Z,99585.59
2022-12-08T10:01:20.234Z,99585.59
2022-12-08T10:03:47.942Z,99564.06
2022-12-08T10:06:33.812Z,99582.03
2022-12-08T10:09:37.401Z,99600.91
2022-12-08T10:12:16.925Z,99576.84
2022-12-08T10:14:56.640Z,99575.78
2022-12-08T10:17:41.642Z,99558.09
2022-12-08T10:20:46.636Z,99587.81
2022-12-08T10:23:14.569Z,99589.91
2022-12-08T10:25:46.346Z,99568.69
2022-12-08T10:28:16.091Z,99571.47
2022-12-08T10:30:43.678Z,99601.56
2022-12-08T10:33:20.137Z,99554.00
2022-12-08T10:35:49.057Z,99595.63
2022-12-08T10:38:36.306Z,99588.41
2022-12-08T10:41:09.617Z,99579.13
2022-12-08T10:43:42.781Z,99587.88
2022-12-08T10:46:18.817Z,99589.38
2022-12-08T10:49:10.596Z,99589.53
2022-12-08T10:51:43.431Z,99578.19
2022-12-08T10:54:34.322Z,99594.31
2022-12-08T10:57:01.632Z,99578.19
2022-12-08T10:59:29.388Z,99578.59
2022-12-08T11:01:57.707Z,99562.97
2022-12-08T11:04:39.205Z,99558.28
2022-12-08T11:07:12.085Z,99579.56
2022-12-08T11:12:33.127Z,99577.81
2022-12-08T11:15:05.977Z,99584.63
2022-12-08T11:17:41.421Z,99570.47
2022-12-08T11:20:11.645Z,99567.75
2022-12-08T11:22:43.134Z,99570.34
2022-12-08T11:25:27.892Z,99574.00
2022-12-08T11:27:59.823Z,99549.00
2022-12-08T11:30:42.661Z,99519.03
2022-12-08T11:36:05.103Z,99552.88
2022-12-08T11:38:34.362Z,99561.28
2022-12-08T11:41:15.792Z,99555.28
2022-12-08T11:43:52.005Z,99570.59
2022-12-08T11:46:43.087Z,99555.25
2022-12-08T11:49:13.582Z,99558.53
2022-12-08T11:54:34.737Z,99554.75
2022-12-08T11:57:06.316Z,99561.56
2022-12-08T11:59:44.576Z,99579.75
2022-12-08T12:02:18.280Z,99574.56
2022-12-08T12:04:45.452Z,99562.41
2022-12-08T12:07:26.416Z,99566.66
2022-12-08T12:10:12.483Z,99585.41
2022-12-08T12:13:13.033Z,99574.56
2022-12-08T12:15:46.597Z,99586.50
2022-12-08T12:18:26.628Z,99563.75
2022-12-08T12:20:56.599Z,99582.38
2022-12-08T12:23:40.793Z,99579.88
2022-12-08T12:26:17.221Z,99586.47
2022-12-08T12:29:06.269Z,99583.38
2022-12-08T12:31:48.745Z,99581.03
2022-12-08T12:34:31.376Z,99587.41
2022-12-08T12:37:11.197Z,99596.53
2022-12-08T12:39:58.532Z,99594.19
2022-12-08T12:42:46.959Z,99591.06
2022-12-08T12:45:18.330Z,99593.03
2022-12-08T12:47:52.568Z,99595.44
2022-12-08T12:53:16.737Z,99618.41
2022-12-08T12:55:57.763Z,99609.53
2022-12-08T12:58:30.402Z,99611.53
2022-12-08T13:01:13.606Z,99616.00
2022-12-08T13:03:44.706Z,99614.63
2022-12-08T13:06:16.480Z,99610.38
2022-12-08T13:08:54.103Z,99590.03
2022-12-08T13:11:23.415Z,99599.53
2022-12-08T13:14:05.974Z,99605.84
2022-12-08T13:16:39.636Z,99592.91
2022-12-08T13:19:16.488Z,99604.81
2022-12-08T13:30:37.893Z,99618.41
2022-12-08T13:33:19.265Z,99596.53
2022-12-08T13:36:23.238Z,99616.19
2022-12-08T13:38:56.707Z,99596.28
2022-12-08T13:41:37.187Z,99596.28
2022-12-08T13:47:32.958Z,99601.97
2022-12-08T14:01:33.441Z,99592.59
2022-12-08T14:06:52.099Z,99608.81
2022-12-08T14:09:23.265Z,99599.59
2022-12-08T14:12:04.420Z,99602.84
2022-12-08T14:17:20.004Z,99598.69
2022-12-08T14:22:57.672Z,99613.47
2022-12-08T14:25:28.240Z,99610.94
2022-12-08T14:28:05.930Z,99577.84
2022-12-08T14:30:36.877Z,99593.94
2022-12-08T14:35:56.088Z,99631.66
2022-12-08T14:38:25.845Z,99627.22
2022-12-08T14:41:08.505Z,99663.09
2022-12-08T14:43:36.229Z,99616.03
2022-12-08T14:46:19.812Z,99622.28
2022-12-08T14:49:02.799Z,99638.56
2022-12-08T14:51:35.111Z,99644.94
2022-12-08T14:54:18.515Z,99624.59
2022-12-08T14:59:31.837Z,99641.53
2022-12-08T15:02:24.419Z,99643.22
2022-12-08T15:04:59.913Z,99660.47
2022-12-08T15:07:32.246Z,99623.56
2022-12-08T15:13:05.463Z,99627.56
2022-12-08T15:18:37.724Z,99673.25
2022-12-08T15:21:13.620Z,99639.44
2022-12-08T15:23:50.498Z,99653.50
2022-12-08T15:29:26.223Z,99680.09
2022-12-08T15:32:01.572Z,99658.81
2022-12-08T15:34:36.028Z,99695.31
2022-12-08T15:37:04.772Z,99653.50
2022-12-08T15:42:19.789Z,99698.13
2022-12-08T15:44:47.684Z,99696.38
2022-12-08T15:47:24.401Z,99697.41
2022-12-08T15:50:20.200Z,99679.38
2022-12-08T15:55:38.733Z,99640.03
2022-12-08T16:00:52.881Z,99672.41
2022-12-08T16:09:23.634Z,99675.44
2022-12-08T16:12:18.323Z,99713.84
2022-12-08T16:17:32.815Z,99673.25
2022-12-08T16:25:36.343Z,99691.88
2022-12-08T16:33:45.756Z,99688.38
2022-12-08T16:36:22.612Z,99704.69
2022-12-08T16:42:21.457Z,99690.47
2022-12-08T16:47:33.774Z,99692.53
2022-12-08T16:52:52.076Z,99691.72
2022-12-08T17:06:20.264Z,99692.56
2022-12-08T17:11:42.604Z,99693.41
2022-12-08T17:35:53.645Z,99694.06
2022-12-08T17:38:35.586Z,99702.31
2022-12-08T17:57:48.477Z,99683.91
2022-12-08T18:03:06.455Z,99701.31
2022-12-08T18:05:44.916Z,99731.09
2022-12-08T18:16:25.152Z,99725.50
2022-12-08T18:24:23.196Z,99734.41
2022-12-08T18:26:52.459Z,99717.69
2022-12-08T18:29:21.006Z,99714.59
2022-12-08T18:31:49.136Z,99716.28
2022-12-08T18:34:19.025Z,99721.63
2022-12-08T18:36:46.258Z,99720.22
2022-12-08T18:39:26.552Z,99730.97
2022-12-08T18:41:55.721Z,99732.34
2022-12-08T18:44:23.226Z,99738.16
2022-12-08T18:46:51.209Z,99736.50
2022-12-08T18:49:20.285Z,99729.09
2022-12-08T18:51:47.755Z,99738.81
2022-12-08T18:54:15.330Z,99747.00
2022-12-08T18:56:42.553Z,99717.94
2022-12-08T18:59:11.385Z,99744.31
2022-12-08T19:01:39.951Z,99736.81
2022-12-08T19:04:27.960Z,99741.50
2022-12-08T19:06:56.586Z,99711.19
2022-12-08T19:09:35.082Z,99712.19
2022-12-08T19:12:02.554Z,99725.69
2022-12-08T19:14:40.263Z,99742.53
2022-12-08T19:22:36.703Z,99752.78
2022-12-08T19:25:05.098Z,99736.41
2022-12-08T19:27:36.729Z,99709.50
2022-12-08T19:30:04.541Z,99742.75
2022-12-08T19:35:15.414Z,99744.72
2022-12-08T19:37:43.109Z,99723.72
2022-12-08T19:40:31.961Z,99745.03
2022-12-08T19:43:18.246Z,99724.00
2022-12-08T19:45:45.478Z,99753.91
2022-12-08T19:48:14.239Z,99726.00
2022-12-08T19:50:42.500Z,99728.09
2022-12-08T19:53:14.950Z,99759.84
2022-12-08T19:55:44.117Z,99761.16
2022-12-08T20:00:56.772Z,99745.69
2022-12-08T20:03:23.945Z,99751.22
2022-12-08T20:05:53.347Z,99744.94
2022-12-08T20:08:20.856Z,99722.41
2022-12-08T20:10:48.185Z,99742.88
2022-12-08T20:13:35.564Z,99718.22
2022-12-08T20:16:02.761Z,99747.84
2022-12-08T20:18:30.067Z,99737.66
2022-12-08T20:20:58.350Z,99736.75
2022-12-08T20:23:25.686Z,99738.38
2022-12-08T20:25:53.233Z,99747.47
2022-12-08T20:28:21.149Z,99769.28
2022-12-08T20:30:49.724Z,99726.53
2022-12-08T20:33:18.603Z,99763.09
2022-12-08T20:35:47.680Z,99729.41
2022-12-08T20:38:14.933Z,99752.47
2022-12-08T20:40:47.429Z,99772.38
2022-12-08T20:43:14.977Z,99761.75
2022-12-08T20:45:42.083Z,99766.25
2022-12-08T20:48:09.037Z,99744.59
2022-12-08T20:50:36.244Z,99747.63
2022-12-08T20:53:04.214Z,99735.25
2022-12-08T20:55:31.503Z,99759.38
2022-12-08T20:57:58.850Z,99723.22
2022-12-08T21:00:27.381Z,99747.03
2022-12-08T21:02:56.746Z,99751.19
2022-12-08T21:05:25.429Z,99750.16
2022-12-08T21:07:53.085Z,99730.09
2022-12-08T21:10:20.404Z,99744.94
2022-12-08T21:12:47.676Z,99765.09
2022-12-08T21:15:14.672Z,99760.34
2022-12-08T21:17:41.966Z,99759.63
2022-12-08T21:20:10.129Z,99754.72
2022-12-08T21:22:37.713Z,99726.94
2022-12-08T21:25:07.368Z,99725.50
2022-12-08T21:27:34.614Z,99743.81
2022-12-08T21:30:01.694Z,99752.34
2022-12-08T21:32:32.450Z,99730.81
2022-12-08T21:34:59.622Z,99738.66
2022-12-08T21:37:26.757Z,99743.81
2022-12-08T21:39:53.789Z,99754.63
2022-12-08T21:42:40.086Z,99753.34
2022-12-08T21:45:07.765Z,99754.31
2022-12-08T21:47:36.737Z,99758.94
2022-12-08T21:50:04.669Z,99759.34
2022-12-08T21:52:32.841Z,99731.44
2022-12-08T21:55:00.419Z,99755.97
2022-12-08T21:57:27.585Z,99779.25
2022-12-08T21:59:55.312Z,99758.34
2022-12-08T22:02:23.226Z,99741.72
2022-12-08T22:04:52.942Z,99749.31
2022-12-08T22:07:34.979Z,99773.41
2022-12-08T22:10:02.551Z,99718.03
2022-12-08T22:12:31.496Z,99788.00
2022-12-08T22:14:58.827Z,99728.88
2022-12-08T22:17:27.295Z,99759.22
2022-12-08T22:19:54.431Z,99774.28
2022-12-08T22:22:21.538Z,99774.94
2022-12-08T22:24:49.140Z,99778.31
2022-12-08T22:27:17.326Z,99764.16
2022-12-08T22:29:45.239Z,99792.75
2022-12-08T22:32:12.449Z,99761.09
2022-12-08T22:34:39.651Z,99760.47
2022-12-08T22:37:07.233Z,99782.00
2022-12-08T22:39:35.842Z,99767.81
2022-12-08T22:42:03.355Z,99753.25
2022-12-08T22:44:30.630Z,99770.72
2022-12-08T22:46:57.882Z,99765.16
2022-12-08T22:49:25.866Z,99768.53
2022-12-08T22:51:53.703Z,99775.03
2022-12-08T22:54:22.076Z,99784.47
2022-12-08T22:56:49.265Z,99773.69
2022-12-08T22:59:16.345Z,99791.38
2022-12-08T23:01:44.891Z,99782.78
2022-12-08T23:04:17.377Z,99782.84
2022-12-08T23:06:45.111Z,99787.13
2022-12-08T23:09:12.608Z,99753.78
2022-12-08T23:11:40.191Z,99774.06
2022-12-08T23:14:07.430Z,99761.88
2022-12-08T23:16:34.948Z,99767.66
2022-12-08T23:19:02.424Z,99757.72
2022-12-08T23:21:29.835Z,99745.72
2022-12-08T23:23:57.233Z,99780.53
2022-12-08T23:26:27.322Z,99778.94
2022-12-08T23:28:55.081Z,99753.56
2022-12-08T23:31:23.772Z,99783.09
2022-12-08T23:33:52.437Z,99772.16
2022-12-08T23:36:25.775Z,99767.28
2022-12-08T23:38:54.557Z,99767.50
2022-12-08T23:41:22.189Z,99770.03
2022-12-08T23:43:51.996Z,99775.19
2022-12-08T23:46:21.938Z,99784.75
2022-12-08T23:48:50.615Z,99758.34
2022-12-08T23:51:18.450Z,99762.97
2022-12-08T23:53:46.347Z,99785.28
2022-12-08T23:56:16.820Z,99784.50
2022-12-08T23:58:45.124Z,99789.66
